sensor_id;sensor_type;location;lat;lon;timestamp;P1;durP1;ratioP1;P2;durP2;ratioP2
17566;SDS011;8901;52.088;5.084;2023-04-01T00:01:00;18.37;;;16.47;;
17566;SDS011;8901;52.088;5.084;2023-04-01T00:03:28;19.97;;;17.47;;
17566;SDS011;8901;52.088;5.084;2023-04-01T00:05:57;18.23;;;15.87;;
17566;SDS011;8901;52.088;5.084;2023-04-01T00:08:24;19.67;;;16.93;;
17566;SDS011;8901;52.088;5.084;2023-04-01T00:10:54;19.00;;;16.93;;
17566;SDS011;8901;52.088;5.084;2023-04-01T00:13:22;23.67;;;18.10;;
17566;SDS011;8901;52.088;5.084;2023-04-01T00:15:50;19.90;;;17.90;;
17566;SDS011;8901;52.088;5.084;2023-04-01T00:18:18;19.63;;;17.60;;
17566;SDS011;8901;52.088;5.084;2023-04-01T00:20:45;19.37;;;17.57;;
17566;SDS011;8901;52.088;5.084;2023-04-01T00:23:12;17.80;;;16.17;;
17566;SDS011;8901;52.088;5.084;2023-04-01T00:25:40;18.63;;;16.77;;
17566;SDS011;8901;52.088;5.084;2023-04-01T00:28:08;20.17;;;17.80;;
17566;SDS011;8901;52.088;5.084;2023-04-01T00:30:36;17.67;;;16.07;;
17566;SDS011;8901;52.088;5.084;2023-04-01T00:33:04;20.73;;;18.77;;
17566;SDS011;8901;52.088;5.084;2023-04-01T00:35:31;20.97;;;19.07;;
17566;SDS011;8901;52.088;5.084;2023-04-01T00:37:58;20.83;;;18.83;;
17566;SDS011;8901;52.088;5.084;2023-04-01T00:40:27;20.97;;;18.97;;
17566;SDS011;8901;52.088;5.084;2023-04-01T00:42:54;19.60;;;17.70;;
17566;SDS011;8901;52.088;5.084;2023-04-01T00:45:27;18.63;;;16.83;;
17566;SDS011;8901;52.088;5.084;2023-04-01T00:47:55;20.43;;;18.47;;
17566;SDS011;8901;52.088;5.084;2023-04-01T00:50:23;20.27;;;18.57;;
17566;SDS011;8901;52.088;5.084;2023-04-01T00:52:51;18.93;;;17.23;;
17566;SDS011;8901;52.088;5.084;2023-04-01T00:55:19;19.40;;;17.60;;
17566;SDS011;8901;52.088;5.084;2023-04-01T00:57:47;18.77;;;17.03;;
17566;SDS011;8901;52.088;5.084;2023-04-01T01:00:16;19.17;;;17.27;;
17566;SDS011;8901;52.088;5.084;2023-04-01T01:02:45;18.90;;;17.20;;
17566;SDS011;8901;52.088;5.084;2023-04-01T01:05:13;17.87;;;16.17;;
17566;SDS011;8901;52.088;5.084;2023-04-01T01:07:42;18.90;;;17.13;;
17566;SDS011;8901;52.088;5.084;2023-04-01T01:10:13;16.90;;;15.10;;
17566;SDS011;8901;52.088;5.084;2023-04-01T01:12:45;15.70;;;14.40;;
17566;SDS011;8901;52.088;5.084;2023-04-01T01:15:14;16.77;;;15.23;;
17566;SDS011;8901;52.088;5.084;2023-04-01T01:17:50;16.93;;;15.10;;
17566;SDS011;8901;52.088;5.084;2023-04-01T01:20:35;15.60;;;14.30;;
17566;SDS011;8901;52.088;5.084;2023-04-01T01:23:12;15.33;;;13.93;;
17566;SDS011;8901;52.088;5.084;2023-04-01T01:25:44;13.77;;;12.67;;
17566;SDS011;8901;52.088;5.084;2023-04-01T01:28:20;15.97;;;14.43;;
17566;SDS011;8901;52.088;5.084;2023-04-01T01:30:50;15.87;;;14.57;;
17566;SDS011;8901;52.088;5.084;2023-04-01T01:33:22;16.37;;;14.83;;
17566;SDS011;8901;52.088;5.084;2023-04-01T01:35:52;16.17;;;14.87;;
17566;SDS011;8901;52.088;5.084;2023-04-01T01:38:21;15.37;;;13.97;;
17566;SDS011;8901;52.088;5.084;2023-04-01T01:40:50;15.47;;;14.27;;
17566;SDS011;8901;52.088;5.084;2023-04-01T01:43:19;15.60;;;14.37;;
17566;SDS011;8901;52.088;5.084;2023-04-01T01:45:48;16.97;;;15.53;;
17566;SDS011;8901;52.088;5.084;2023-04-01T01:48:16;15.87;;;14.50;;
17566;SDS011;8901;52.088;5.084;2023-04-01T01:50:45;15.80;;;14.53;;
17566;SDS011;8901;52.088;5.084;2023-04-01T01:53:14;16.33;;;14.93;;
17566;SDS011;8901;52.088;5.084;2023-04-01T01:55:42;16.80;;;15.40;;
17566;SDS011;8901;52.088;5.084;2023-04-01T01:58:11;15.67;;;14.33;;
17566;SDS011;8901;52.088;5.084;2023-04-01T02:00:40;15.70;;;14.33;;
17566;SDS011;8901;52.088;5.084;2023-04-01T02:03:09;15.63;;;14.33;;
17566;SDS011;8901;52.088;5.084;2023-04-01T02:05:37;15.17;;;13.93;;
17566;SDS011;8901;52.088;5.084;2023-04-01T02:08:05;15.10;;;13.90;;
17566;SDS011;8901;52.088;5.084;2023-04-01T02:10:35;14.00;;;12.90;;
17566;SDS011;8901;52.088;5.084;2023-04-01T02:13:05;16.23;;;14.67;;
17566;SDS011;8901;52.088;5.084;2023-04-01T02:15:35;13.90;;;12.60;;
17566;SDS011;8901;52.088;5.084;2023-04-01T02:18:03;13.17;;;12.07;;
17566;SDS011;8901;52.088;5.084;2023-04-01T02:20:32;14.00;;;12.70;;
17566;SDS011;8901;52.088;5.084;2023-04-01T02:22:59;12.47;;;11.27;;
17566;SDS011;8901;52.088;5.084;2023-04-01T02:25:27;13.10;;;11.80;;
17566;SDS011;8901;52.088;5.084;2023-04-01T02:27:56;13.30;;;11.80;;
17566;SDS011;8901;52.088;5.084;2023-04-01T02:30:24;13.40;;;12.10;;
17566;SDS011;8901;52.088;5.084;2023-04-01T02:32:52;13.57;;;12.47;;
17566;SDS011;8901;52.088;5.084;2023-04-01T02:35:20;13.00;;;11.93;;
17566;SDS011;8901;52.088;5.084;2023-04-01T02:37:48;12.97;;;11.87;;
17566;SDS011;8901;52.088;5.084;2023-04-01T02:40:16;13.17;;;12.07;;
17566;SDS011;8901;52.088;5.084;2023-04-01T02:42:44;13.17;;;11.90;;
17566;SDS011;8901;52.088;5.084;2023-04-01T02:45:13;12.83;;;11.60;;
17566;SDS011;8901;52.088;5.084;2023-04-01T02:47:41;10.73;;;9.83;;
17566;SDS011;8901;52.088;5.084;2023-04-01T02:50:08;11.50;;;10.60;;
17566;SDS011;8901;52.088;5.084;2023-04-01T02:52:36;12.03;;;11.10;;
17566;SDS011;8901;52.088;5.084;2023-04-01T02:55:03;11.97;;;10.97;;
17566;SDS011;8901;52.088;5.084;2023-04-01T02:57:30;12.00;;;11.10;;
17566;SDS011;8901;52.088;5.084;2023-04-01T02:59:58;12.23;;;11.30;;
17566;SDS011;8901;52.088;5.084;2023-04-01T03:02:26;11.57;;;10.57;;
17566;SDS011;8901;52.088;5.084;2023-04-01T03:04:53;11.20;;;10.37;;
17566;SDS011;8901;52.088;5.084;2023-04-01T03:07:20;11.13;;;10.23;;
17566;SDS011;8901;52.088;5.084;2023-04-01T03:09:48;10.80;;;10.00;;
17566;SDS011;8901;52.088;5.084;2023-04-01T03:12:15;11.97;;;11.00;;
17566;SDS011;8901;52.088;5.084;2023-04-01T03:14:42;12.47;;;11.37;;
17566;SDS011;8901;52.088;5.084;2023-04-01T03:17:09;13.07;;;11.87;;
17566;SDS011;8901;52.088;5.084;2023-04-01T03:19:38;11.00;;;10.10;;
17566;SDS011;8901;52.088;5.084;2023-04-01T03:22:05;11.63;;;10.63;;
17566;SDS011;8901;52.088;5.084;2023-04-01T03:24:32;10.70;;;9.60;;
17566;SDS011;8901;52.088;5.084;2023-04-01T03:26:59;10.93;;;9.90;;
17566;SDS011;8901;52.088;5.084;2023-04-01T03:29:26;11.73;;;10.63;;
17566;SDS011;8901;52.088;5.084;2023-04-01T03:31:54;10.07;;;9.17;;
17566;SDS011;8901;52.088;5.084;2023-04-01T03:34:22;11.07;;;10.17;;
17566;SDS011;8901;52.088;5.084;2023-04-01T03:36:51;12.30;;;10.93;;
17566;SDS011;8901;52.088;5.084;2023-04-01T03:39:18;11.97;;;10.77;;
17566;SDS011;8901;52.088;5.084;2023-04-01T03:41:46;11.93;;;10.67;;
17566;SDS011;8901;52.088;5.084;2023-04-01T03:44:13;11.83;;;10.73;;
17566;SDS011;8901;52.088;5.084;2023-04-01T03:46:40;10.90;;;9.90;;
17566;SDS011;8901;52.088;5.084;2023-04-01T03:49:08;10.53;;;9.00;;
17566;SDS011;8901;52.088;5.084;2023-04-01T03:51:36;9.90;;;9.00;;
17566;SDS011;8901;52.088;5.084;2023-04-01T03:54:05;11.20;;;10.10;;
17566;SDS011;8901;52.088;5.084;2023-04-01T03:56:33;10.20;;;9.27;;
17566;SDS011;8901;52.088;5.084;2023-04-01T03:59:01;10.50;;;9.50;;
17566;SDS011;8901;52.088;5.084;2023-04-01T04:01:29;11.23;;;10.03;;
17566;SDS011;8901;52.088;5.084;2023-04-01T04:03:56;11.23;;;10.13;;
17566;SDS011;8901;52.088;5.084;2023-04-01T04:06:24;11.43;;;10.27;;
17566;SDS011;8901;52.088;5.084;2023-04-01T04:08:51;11.73;;;10.40;;
17566;SDS011;8901;52.088;5.084;2023-04-01T04:11:20;11.40;;;10.23;;
17566;SDS011;8901;52.088;5.084;2023-04-01T04:13:48;12.07;;;10.97;;
17566;SDS011;8901;52.088;5.084;2023-04-01T04:16:15;11.17;;;9.60;;
17566;SDS011;8901;52.088;5.084;2023-04-01T04:18:42;9.73;;;8.37;;
17566;SDS011;8901;52.088;5.084;2023-04-01T04:21:11;10.57;;;9.50;;
17566;SDS011;8901;52.088;5.084;2023-04-01T04:23:38;10.70;;;9.63;;
17566;SDS011;8901;52.088;5.084;2023-04-01T04:26:06;11.43;;;9.63;;
17566;SDS011;8901;52.088;5.084;2023-04-01T04:28:35;9.57;;;8.67;;
17566;SDS011;8901;52.088;5.084;2023-04-01T04:31:02;10.20;;;9.20;;
17566;SDS011;8901;52.088;5.084;2023-04-01T04:33:31;10.37;;;9.37;;
17566;SDS011;8901;52.088;5.084;2023-04-01T04:35:59;10.27;;;9.27;;
17566;SDS011;8901;52.088;5.084;2023-04-01T04:38:26;9.93;;;8.93;;
17566;SDS011;8901;52.088;5.084;2023-04-01T04:40:53;10.27;;;9.37;;
17566;SDS011;8901;52.088;5.084;2023-04-01T04:43:20;10.40;;;9.40;;
17566;SDS011;8901;52.088;5.084;2023-04-01T04:45:49;12.00;;;10.10;;
17566;SDS011;8901;52.088;5.084;2023-04-01T04:48:16;10.93;;;9.83;;
17566;SDS011;8901;52.088;5.084;2023-04-01T04:50:45;10.33;;;9.17;;
17566;SDS011;8901;52.088;5.084;2023-04-01T04:53:12;10.30;;;9.20;;
17566;SDS011;8901;52.088;5.084;2023-04-01T04:55:42;12.80;;;11.50;;
17566;SDS011;8901;52.088;5.084;2023-04-01T04:58:09;10.87;;;9.30;;
17566;SDS011;8901;52.088;5.084;2023-04-01T05:00:36;13.03;;;11.83;;
17566;SDS011;8901;52.088;5.084;2023-04-01T05:03:05;12.20;;;10.93;;
17566;SDS011;8901;52.088;5.084;2023-04-01T05:05:32;10.37;;;9.33;;
17566;SDS011;8901;52.088;5.084;2023-04-01T05:07:59;10.80;;;9.70;;
17566;SDS011;8901;52.088;5.084;2023-04-01T05:10:26;12.50;;;11.30;;
17566;SDS011;8901;52.088;5.084;2023-04-01T05:12:54;10.60;;;9.43;;
17566;SDS011;8901;52.088;5.084;2023-04-01T05:15:21;11.53;;;9.77;;
17566;SDS011;8901;52.088;5.084;2023-04-01T05:17:49;10.83;;;9.73;;
17566;SDS011;8901;52.088;5.084;2023-04-01T05:20:17;11.53;;;10.33;;
17566;SDS011;8901;52.088;5.084;2023-04-01T05:22:44;11.57;;;10.37;;
17566;SDS011;8901;52.088;5.084;2023-04-01T05:25:12;12.03;;;10.77;;
17566;SDS011;8901;52.088;5.084;2023-04-01T05:27:39;12.67;;;10.33;;
17566;SDS011;8901;52.088;5.084;2023-04-01T05:30:06;13.10;;;11.80;;
17566;SDS011;8901;52.088;5.084;2023-04-01T05:35:37;11.03;;;9.93;;
17566;SDS011;8901;52.088;5.084;2023-04-01T05:38:04;10.80;;;9.70;;
17566;SDS011;8901;52.088;5.084;2023-04-01T05:40:32;12.27;;;9.90;;
17566;SDS011;8901;52.088;5.084;2023-04-01T05:42:59;11.13;;;10.00;;
17566;SDS011;8901;52.088;5.084;2023-04-01T05:45:26;11.93;;;10.10;;
17566;SDS011;8901;52.088;5.084;2023-04-01T05:47:54;11.67;;;10.13;;
17566;SDS011;8901;52.088;5.084;2023-04-01T05:50:21;11.60;;;9.93;;
17566;SDS011;8901;52.088;5.084;2023-04-01T05:52:49;12.27;;;10.97;;
17566;SDS011;8901;52.088;5.084;2023-04-01T05:55:17;11.43;;;10.30;;
17566;SDS011;8901;52.088;5.084;2023-04-01T05:57:44;11.50;;;10.40;;
17566;SDS011;8901;52.088;5.084;2023-04-01T06:00:13;11.00;;;9.77;;
17566;SDS011;8901;52.088;5.084;2023-04-01T06:02:41;12.03;;;10.50;;
17566;SDS011;8901;52.088;5.084;2023-04-01T06:05:11;11.50;;;10.23;;
17566;SDS011;8901;52.088;5.084;2023-04-01T06:07:39;14.53;;;9.73;;
17566;SDS011;8901;52.088;5.084;2023-04-01T06:10:11;11.30;;;10.10;;
17566;SDS011;8901;52.088;5.084;2023-04-01T06:12:40;12.70;;;10.37;;
17566;SDS011;8901;52.088;5.084;2023-04-01T06:15:18;11.73;;;9.77;;
17566;SDS011;8901;52.088;5.084;2023-04-01T06:17:50;12.30;;;10.57;;
17566;SDS011;8901;52.088;5.084;2023-04-01T06:20:20;11.60;;;10.40;;
17566;SDS011;8901;52.088;5.084;2023-04-01T06:22:51;13.27;;;10.30;;
17566;SDS011;8901;52.088;5.084;2023-04-01T06:25:24;12.40;;;11.10;;
17566;SDS011;8901;52.088;5.084;2023-04-01T06:27:57;11.90;;;10.20;;
17566;SDS011;8901;52.088;5.084;2023-04-01T06:30:35;11.50;;;9.33;;
17566;SDS011;8901;52.088;5.084;2023-04-01T06:33:11;12.00;;;9.47;;
17566;SDS011;8901;52.088;5.084;2023-04-01T06:35:45;14.57;;;12.00;;
17566;SDS011;8901;52.088;5.084;2023-04-01T06:38:20;15.50;;;11.80;;
17566;SDS011;8901;52.088;5.084;2023-04-01T06:40:59;14.80;;;12.83;;
17566;SDS011;8901;52.088;5.084;2023-04-01T06:43:32;15.43;;;12.13;;
17566;SDS011;8901;52.088;5.084;2023-04-01T06:46:05;16.30;;;13.53;;
17566;SDS011;8901;52.088;5.084;2023-04-01T06:48:40;19.33;;;14.77;;
17566;SDS011;8901;52.088;5.084;2023-04-01T06:51:12;20.87;;;16.23;;
17566;SDS011;8901;52.088;5.084;2023-04-01T06:53:43;17.73;;;15.77;;
17566;SDS011;8901;52.088;5.084;2023-04-01T06:56:15;22.13;;;16.20;;
17566;SDS011;8901;52.088;5.084;2023-04-01T06:58:44;18.03;;;13.20;;
17566;SDS011;8901;52.088;5.084;2023-04-01T07:01:14;19.00;;;15.97;;
17566;SDS011;8901;52.088;5.084;2023-04-01T07:03:44;23.47;;;15.20;;
17566;SDS011;8901;52.088;5.084;2023-04-01T07:06:13;20.77;;;16.17;;
17566;SDS011;8901;52.088;5.084;2023-04-01T07:08:41;20.57;;;15.40;;
17566;SDS011;8901;52.088;5.084;2023-04-01T07:11:10;22.13;;;17.43;;
17566;SDS011;8901;52.088;5.084;2023-04-01T07:16:43;22.87;;;16.93;;
17566;SDS011;8901;52.088;5.084;2023-04-01T07:19:12;17.50;;;14.07;;
17566;SDS011;8901;52.088;5.084;2023-04-01T07:21:44;17.07;;;14.10;;
17566;SDS011;8901;52.088;5.084;2023-04-01T07:24:13;18.90;;;14.10;;
17566;SDS011;8901;52.088;5.084;2023-04-01T07:26:42;17.50;;;12.37;;
17566;SDS011;8901;52.088;5.084;2023-04-01T07:29:10;19.93;;;14.73;;
17566;SDS011;8901;52.088;5.084;2023-04-01T07:31:43;16.13;;;12.83;;
17566;SDS011;8901;52.088;5.084;2023-04-01T07:34:13;14.57;;;11.60;;
17566;SDS011;8901;52.088;5.084;2023-04-01T07:36:42;16.30;;;12.43;;
17566;SDS011;8901;52.088;5.084;2023-04-01T07:39:13;13.70;;;11.70;;
17566;SDS011;8901;52.088;5.084;2023-04-01T07:41:48;17.80;;;12.80;;
17566;SDS011;8901;52.088;5.084;2023-04-01T07:44:19;18.20;;;12.67;;
17566;SDS011;8901;52.088;5.084;2023-04-01T07:46:58;19.53;;;14.23;;
17566;SDS011;8901;52.088;5.084;2023-04-01T07:49:32;16.90;;;11.63;;
17566;SDS011;8901;52.088;5.084;2023-04-01T07:52:02;18.50;;;11.57;;
17566;SDS011;8901;52.088;5.084;2023-04-01T07:54:34;18.17;;;12.67;;
17566;SDS011;8901;52.088;5.084;2023-04-01T07:57:06;17.23;;;11.77;;
17566;SDS011;8901;52.088;5.084;2023-04-01T07:59:36;16.33;;;11.53;;
17566;SDS011;8901;52.088;5.084;2023-04-01T08:02:10;14.73;;;10.50;;
17566;SDS011;8901;52.088;5.084;2023-04-01T08:04:51;16.17;;;11.30;;
17566;SDS011;8901;52.088;5.084;2023-04-01T08:07:22;13.80;;;11.13;;
17566;SDS011;8901;52.088;5.084;2023-04-01T08:09:52;14.83;;;12.53;;
17566;SDS011;8901;52.088;5.084;2023-04-01T08:12:26;16.40;;;12.43;;
17566;SDS011;8901;52.088;5.084;2023-04-01T08:14:56;16.70;;;13.00;;
17566;SDS011;8901;52.088;5.084;2023-04-01T08:17:28;16.47;;;12.93;;
17566;SDS011;8901;52.088;5.084;2023-04-01T08:20:02;13.47;;;10.60;;
17566;SDS011;8901;52.088;5.084;2023-04-01T08:22:33;17.10;;;12.20;;
17566;SDS011;8901;52.088;5.084;2023-04-01T08:25:04;19.23;;;13.40;;
17566;SDS011;8901;52.088;5.084;2023-04-01T08:27:34;17.67;;;12.90;;
17566;SDS011;8901;52.088;5.084;2023-04-01T08:30:02;18.43;;;13.07;;
17566;SDS011;8901;52.088;5.084;2023-04-01T08:32:32;16.17;;;12.50;;
17566;SDS011;8901;52.088;5.084;2023-04-01T08:35:07;16.40;;;14.03;;
17566;SDS011;8901;52.088;5.084;2023-04-01T08:37:35;16.90;;;13.13;;
17566;SDS011;8901;52.088;5.084;2023-04-01T08:40:10;16.10;;;13.77;;
17566;SDS011;8901;52.088;5.084;2023-04-01T08:42:49;18.97;;;12.63;;
17566;SDS011;8901;52.088;5.084;2023-04-01T08:45:22;12.43;;;10.63;;
17566;SDS011;8901;52.088;5.084;2023-04-01T08:48:04;16.17;;;13.23;;
17566;SDS011;8901;52.088;5.084;2023-04-01T08:50:36;14.03;;;11.23;;
17566;SDS011;8901;52.088;5.084;2023-04-01T08:53:10;15.87;;;12.57;;
17566;SDS011;8901;52.088;5.084;2023-04-01T08:55:44;13.27;;;11.30;;
17566;SDS011;8901;52.088;5.084;2023-04-01T09:01:03;13.63;;;11.37;;
17566;SDS011;8901;52.088;5.084;2023-04-01T09:03:37;15.80;;;12.13;;
17566;SDS011;8901;52.088;5.084;2023-04-01T09:06:12;16.00;;;11.97;;
17566;SDS011;8901;52.088;5.084;2023-04-01T09:08:51;14.60;;;12.03;;
17566;SDS011;8901;52.088;5.084;2023-04-01T09:11:31;15.53;;;12.40;;
17566;SDS011;8901;52.088;5.084;2023-04-01T09:16:51;14.80;;;11.83;;
17566;SDS011;8901;52.088;5.084;2023-04-01T09:19:29;14.77;;;11.67;;
17566;SDS011;8901;52.088;5.084;2023-04-01T09:22:10;14.87;;;12.20;;
17566;SDS011;8901;52.088;5.084;2023-04-01T09:24:58;12.40;;;11.10;;
17566;SDS011;8901;52.088;5.084;2023-04-01T09:27:29;14.43;;;10.60;;
17566;SDS011;8901;52.088;5.084;2023-04-01T09:30:02;11.90;;;10.30;;
17566;SDS011;8901;52.088;5.084;2023-04-01T09:32:41;11.97;;;10.37;;
17566;SDS011;8901;52.088;5.084;2023-04-01T09:38:00;11.57;;;10.07;;
17566;SDS011;8901;52.088;5.084;2023-04-01T09:40:34;11.33;;;10.23;;
17566;SDS011;8901;52.088;5.084;2023-04-01T09:43:16;12.83;;;10.83;;
17566;SDS011;8901;52.088;5.084;2023-04-01T09:45:48;11.87;;;10.37;;
17566;SDS011;8901;52.088;5.084;2023-04-01T09:48:21;11.43;;;10.33;;
17566;SDS011;8901;52.088;5.084;2023-04-01T09:50:52;11.00;;;9.90;;
17566;SDS011;8901;52.088;5.084;2023-04-01T09:53:33;10.93;;;9.83;;
17566;SDS011;8901;52.088;5.084;2023-04-01T09:56:09;11.33;;;10.13;;
17566;SDS011;8901;52.088;5.084;2023-04-01T10:01:36;10.43;;;9.40;;
17566;SDS011;8901;52.088;5.084;2023-04-01T10:06:58;10.17;;;9.17;;
17566;SDS011;8901;52.088;5.084;2023-04-01T10:18:11;8.70;;;7.90;;
17566;SDS011;8901;52.088;5.084;2023-04-01T10:23:38;9.87;;;8.97;;
17566;SDS011;8901;52.088;5.084;2023-04-01T10:29:01;9.40;;;8.40;;
17566;SDS011;8901;52.088;5.084;2023-04-01T10:31:42;9.60;;;8.70;;
17566;SDS011;8901;52.088;5.084;2023-04-01T10:34:30;9.33;;;8.13;;
17566;SDS011;8901;52.088;5.084;2023-04-01T10:37:08;9.93;;;8.93;;
17566;SDS011;8901;52.088;5.084;2023-04-01T10:39:52;10.77;;;9.77;;
17566;SDS011;8901;52.088;5.084;2023-04-01T10:48:20;10.47;;;9.47;;
17566;SDS011;8901;52.088;5.084;2023-04-01T10:50:54;10.73;;;9.63;;
17566;SDS011;8901;52.088;5.084;2023-04-01T10:53:31;10.97;;;9.90;;
17566;SDS011;8901;52.088;5.084;2023-04-01T10:59:02;10.70;;;9.20;;
17566;SDS011;8901;52.088;5.084;2023-04-01T11:01:52;8.80;;;7.90;;
17566;SDS011;8901;52.088;5.084;2023-04-01T11:04:40;8.70;;;7.40;;
17566;SDS011;8901;52.088;5.084;2023-04-01T11:07:31;6.77;;;6.07;;
17566;SDS011;8901;52.088;5.084;2023-04-01T11:13:00;6.80;;;6.20;;
17566;SDS011;8901;52.088;5.084;2023-04-01T11:24:50;7.77;;;6.80;;
17566;SDS011;8901;52.088;5.084;2023-04-01T11:30:28;7.97;;;7.17;;
17566;SDS011;8901;52.088;5.084;2023-04-01T11:32:58;7.17;;;6.57;;
17566;SDS011;8901;52.088;5.084;2023-04-01T11:35:32;7.50;;;6.77;;
17566;SDS011;8901;52.088;5.084;2023-04-01T11:38:06;7.03;;;6.33;;
17566;SDS011;8901;52.088;5.084;2023-04-01T11:40:40;7.80;;;6.87;;
17566;SDS011;8901;52.088;5.084;2023-04-01T11:43:10;7.60;;;6.90;;
17566;SDS011;8901;52.088;5.084;2023-04-01T11:45:39;7.20;;;6.50;;
17566;SDS011;8901;52.088;5.084;2023-04-01T11:48:19;6.73;;;6.23;;
17566;SDS011;8901;52.088;5.084;2023-04-01T11:53:41;6.90;;;6.30;;
17566;SDS011;8901;52.088;5.084;2023-04-01T11:56:14;7.43;;;6.83;;
17566;SDS011;8901;52.088;5.084;2023-04-01T11:58:59;6.97;;;6.37;;
17566;SDS011;8901;52.088;5.084;2023-04-01T12:01:32;7.77;;;7.17;;
17566;SDS011;8901;52.088;5.084;2023-04-01T12:04:06;7.30;;;6.60;;
17566;SDS011;8901;52.088;5.084;2023-04-01T12:06:38;7.87;;;7.13;;
17566;SDS011;8901;52.088;5.084;2023-04-01T12:09:11;9.67;;;8.87;;
17566;SDS011;8901;52.088;5.084;2023-04-01T12:11:44;9.87;;;8.97;;
17566;SDS011;8901;52.088;5.084;2023-04-01T12:14:16;10.87;;;9.77;;
17566;SDS011;8901;52.088;5.084;2023-04-01T12:16:47;12.20;;;11.10;;
17566;SDS011;8901;52.088;5.084;2023-04-01T12:19:19;11.83;;;10.63;;
17566;SDS011;8901;52.088;5.084;2023-04-01T12:21:50;11.83;;;10.63;;
17566;SDS011;8901;52.088;5.084;2023-04-01T12:24:29;11.97;;;10.77;;
17566;SDS011;8901;52.088;5.084;2023-04-01T12:27:04;11.80;;;10.80;;
17566;SDS011;8901;52.088;5.084;2023-04-01T12:29:48;13.27;;;12.07;;
17566;SDS011;8901;52.088;5.084;2023-04-01T12:32:20;11.40;;;10.30;;
17566;SDS011;8901;52.088;5.084;2023-04-01T12:37:49;10.53;;;9.40;;
17566;SDS011;8901;52.088;5.084;2023-04-01T12:40:29;12.13;;;11.00;;
17566;SDS011;8901;52.088;5.084;2023-04-01T13:03:27;10.97;;;9.87;;
17566;SDS011;8901;52.088;5.084;2023-04-01T13:11:33;8.93;;;8.03;;
17566;SDS011;8901;52.088;5.084;2023-04-01T13:16:57;7.70;;;7.00;;
17566;SDS011;8901;52.088;5.084;2023-04-01T13:19:30;8.90;;;8.10;;
17566;SDS011;8901;52.088;5.084;2023-04-01T13:22:00;7.90;;;7.20;;
17566;SDS011;8901;52.088;5.084;2023-04-01T13:24:31;7.70;;;7.03;;
17566;SDS011;8901;52.088;5.084;2023-04-01T13:27:03;9.17;;;8.47;;
17566;SDS011;8901;52.088;5.084;2023-04-01T13:29:34;8.53;;;7.80;;
17566;SDS011;8901;52.088;5.084;2023-04-01T13:32:10;9.00;;;8.20;;
17566;SDS011;8901;52.088;5.084;2023-04-01T13:34:45;8.50;;;7.57;;
17566;SDS011;8901;52.088;5.084;2023-04-01T13:37:26;9.17;;;8.47;;
17566;SDS011;8901;52.088;5.084;2023-04-01T13:42:40;9.30;;;8.43;;
17566;SDS011;8901;52.088;5.084;2023-04-01T13:45:10;8.30;;;7.60;;
17566;SDS011;8901;52.088;5.084;2023-04-01T13:47:44;8.77;;;8.07;;
17566;SDS011;8901;52.088;5.084;2023-04-01T13:50:18;7.97;;;7.30;;
17566;SDS011;8901;52.088;5.084;2023-04-01T13:52:50;8.13;;;7.43;;
17566;SDS011;8901;52.088;5.084;2023-04-01T14:00:54;8.40;;;7.70;;
17566;SDS011;8901;52.088;5.084;2023-04-01T14:03:32;7.63;;;7.03;;
17566;SDS011;8901;52.088;5.084;2023-04-01T14:08:51;8.20;;;7.57;;
17566;SDS011;8901;52.088;5.084;2023-04-01T14:11:25;7.97;;;7.17;;
17566;SDS011;8901;52.088;5.084;2023-04-01T14:13:56;8.10;;;7.40;;
17566;SDS011;8901;52.088;5.084;2023-04-01T14:16:44;9.43;;;8.53;;
17566;SDS011;8901;52.088;5.084;2023-04-01T14:19:21;9.00;;;8.20;;
17566;SDS011;8901;52.088;5.084;2023-04-01T14:21:55;9.60;;;8.70;;
17566;SDS011;8901;52.088;5.084;2023-04-01T14:24:43;9.20;;;8.17;;
17566;SDS011;8901;52.088;5.084;2023-04-01T14:30:00;9.00;;;8.20;;
17566;SDS011;8901;52.088;5.084;2023-04-01T14:32:34;10.47;;;9.47;;
17566;SDS011;8901;52.088;5.084;2023-04-01T14:35:14;10.27;;;9.40;;
17566;SDS011;8901;52.088;5.084;2023-04-01T14:38:02;11.00;;;10.00;;
17566;SDS011;8901;52.088;5.084;2023-04-01T14:40:35;11.17;;;10.07;;
17566;SDS011;8901;52.088;5.084;2023-04-01T14:43:10;10.57;;;9.67;;
17566;SDS011;8901;52.088;5.084;2023-04-01T14:48:28;11.70;;;10.50;;
17566;SDS011;8901;52.088;5.084;2023-04-01T14:51:02;11.23;;;10.13;;
17566;SDS011;8901;52.088;5.084;2023-04-01T14:53:30;10.77;;;9.67;;
17566;SDS011;8901;52.088;5.084;2023-04-01T14:56:01;9.87;;;8.93;;
17566;SDS011;8901;52.088;5.084;2023-04-01T14:58:39;10.10;;;8.93;;
17566;SDS011;8901;52.088;5.084;2023-04-01T15:01:12;10.33;;;9.33;;
17566;SDS011;8901;52.088;5.084;2023-04-01T15:03:40;9.97;;;9.17;;
17566;SDS011;8901;52.088;5.084;2023-04-01T15:09:08;10.20;;;9.30;;
17566;SDS011;8901;52.088;5.084;2023-04-01T15:11:43;9.60;;;8.80;;
17566;SDS011;8901;52.088;5.084;2023-04-01T15:14:24;9.73;;;8.93;;
17566;SDS011;8901;52.088;5.084;2023-04-01T15:16:55;10.17;;;9.27;;
17566;SDS011;8901;52.088;5.084;2023-04-01T15:19:29;8.60;;;7.70;;
17566;SDS011;8901;52.088;5.084;2023-04-01T15:24:46;11.23;;;10.20;;
17566;SDS011;8901;52.088;5.084;2023-04-01T15:27:21;10.50;;;9.60;;
17566;SDS011;8901;52.088;5.084;2023-04-01T15:30:02;10.17;;;9.27;;
17566;SDS011;8901;52.088;5.084;2023-04-01T15:32:45;10.13;;;9.23;;
17566;SDS011;8901;52.088;5.084;2023-04-01T15:35:19;10.67;;;9.77;;
17566;SDS011;8901;52.088;5.084;2023-04-01T15:37:49;9.73;;;8.80;;
17566;SDS011;8901;52.088;5.084;2023-04-01T15:40:21;9.67;;;8.87;;
17566;SDS011;8901;52.088;5.084;2023-04-01T15:42:58;9.97;;;9.07;;
17566;SDS011;8901;52.088;5.084;2023-04-01T15:45:34;9.90;;;9.10;;
17566;SDS011;8901;52.088;5.084;2023-04-01T15:48:06;9.87;;;9.07;;
17566;SDS011;8901;52.088;5.084;2023-04-01T15:50:52;10.07;;;9.20;;
17566;SDS011;8901;52.088;5.084;2023-04-01T15:53:27;8.73;;;7.87;;
17566;SDS011;8901;52.088;5.084;2023-04-01T15:55:59;10.93;;;9.93;;
17566;SDS011;8901;52.088;5.084;2023-04-01T15:58:40;11.00;;;9.90;;
17566;SDS011;8901;52.088;5.084;2023-04-01T16:01:15;10.27;;;9.30;;
17566;SDS011;8901;52.088;5.084;2023-04-01T16:03:48;9.53;;;8.50;;
17566;SDS011;8901;52.088;5.084;2023-04-01T16:06:22;9.23;;;8.43;;
17566;SDS011;8901;52.088;5.084;2023-04-01T16:11:43;9.50;;;8.60;;
17566;SDS011;8901;52.088;5.084;2023-04-01T16:14:23;9.00;;;8.20;;
17566;SDS011;8901;52.088;5.084;2023-04-01T16:16:57;8.50;;;7.63;;
17566;SDS011;8901;52.088;5.084;2023-04-01T16:19:31;8.47;;;7.67;;
17566;SDS011;8901;52.088;5.084;2023-04-01T16:22:01;10.17;;;9.27;;
17566;SDS011;8901;52.088;5.084;2023-04-01T16:24:32;8.80;;;8.10;;
17566;SDS011;8901;52.088;5.084;2023-04-01T16:27:04;8.60;;;7.80;;
17566;SDS011;8901;52.088;5.084;2023-04-01T16:29:35;10.13;;;8.20;;
17566;SDS011;8901;52.088;5.084;2023-04-01T16:32:14;8.77;;;7.97;;
17566;SDS011;8901;52.088;5.084;2023-04-01T16:34:47;9.07;;;8.17;;
17566;SDS011;8901;52.088;5.084;2023-04-01T16:37:17;7.97;;;7.37;;
17566;SDS011;8901;52.088;5.084;2023-04-01T16:39:49;8.80;;;8.00;;
17566;SDS011;8901;52.088;5.084;2023-04-01T16:42:24;7.30;;;6.70;;
17566;SDS011;8901;52.088;5.084;2023-04-01T16:44:55;7.77;;;6.97;;
17566;SDS011;8901;52.088;5.084;2023-04-01T16:47:27;8.50;;;7.70;;
17566;SDS011;8901;52.088;5.084;2023-04-01T16:49:58;5.00;;;4.60;;
17566;SDS011;8901;52.088;5.084;2023-04-01T16:52:31;4.80;;;4.50;;
17566;SDS011;8901;52.088;5.084;2023-04-01T16:55:02;4.50;;;4.20;;
17566;SDS011;8901;52.088;5.084;2023-04-01T16:57:35;4.90;;;4.60;;
17566;SDS011;8901;52.088;5.084;2023-04-01T17:00:14;5.40;;;5.00;;
17566;SDS011;8901;52.088;5.084;2023-04-01T17:02:44;4.60;;;4.30;;
17566;SDS011;8901;52.088;5.084;2023-04-01T17:05:15;3.87;;;3.67;;
17566;SDS011;8901;52.088;5.084;2023-04-01T17:07:46;4.43;;;4.13;;